Nissan Maru — JG5485 — position and weather

sailwx.info

Track history (hours):
 
Tides and Currents Weather Stations Pressure Air Temp Water Temp Dewpoint Dewpoint Depression Visibility Wind Speed Wind Dir Waves Ship Positions

Nissan Maru

Last reported at 2014-Oct-25 03:15 UTC. Time now 2014-Oct-25 20:38 UTC.
Position N 35°06' E 139°40'.

Length 108 m; draft 7.2 m.

Type: Cargo ship. MMSI: 431400593.

Date/timePositionNaut miles runAvg speedWind from/ knotsBaromVisibWave heightAir tempDewpointWater temp
2014-Oct-25 03:15N 35°06' E 139°40'913.3
2014-Oct-25 02:33N 35°13' E 139°46'1110.8
2014-Oct-25 01:33N 35°24' E 139°45'0 0.5
2014-Oct-25 00:33N 35°24' E 139°45'0 0.0
2014-Oct-24 23:33N 35°24' E 139°45'4 4.2
2014-Oct-24 22:33N 35°29' E 139°45'0 0.5
2014-Oct-24 21:33N 35°29' E 139°44'0 0.0
2014-Oct-24 20:27N 35°29' E 139°44'0 0.0
2014-Oct-24 19:33N 35°29' E 139°44'0 0.0
2014-Oct-24 18:33N 35°29' E 139°44'0 0.0
2014-Oct-24 17:33N 35°29' E 139°44'0 0.0
2014-Oct-24 16:33N 35°29' E 139°44'0 0.0
2014-Oct-24 15:30N 35°29' E 139°44'0 0.0
2014-Oct-24 14:33N 35°29' E 139°44'0 0.0
2014-Oct-24 13:33N 35°29' E 139°44'0 0.0
2014-Oct-24 12:33N 35°29' E 139°44'8 8.3
2014-Oct-24 11:34N 35°21' E 139°45'  
2014-Oct-21 13:25N 35°04' E 139°37'1011.5
2014-Oct-21 12:33N 35°11' E 139°45'1111.3
2014-Oct-21 11:34N 35°22' E 139°42'7 6.9
2014-Oct-21 10:34N 35°29' E 139°44'0 0.0
2014-Oct-21 09:32N 35°29' E 139°44'0 0.0
2014-Oct-21 08:32N 35°29' E 139°44'0 0.0
2014-Oct-21 07:32N 35°29' E 139°44'0 0.0
2014-Oct-21 06:32N 35°29' E 139°44'0 0.0
2014-Oct-21 05:32N 35°29' E 139°44'0 0.0
2014-Oct-21 04:32N 35°29' E 139°44'0 0.0
2014-Oct-21 03:32N 35°29' E 139°44'0 0.0
2014-Oct-21 02:29N 35°29' E 139°44'0 0.0
2014-Oct-21 01:32N 35°29' E 139°44'0 0.0
2014-Oct-21 00:32N 35°29' E 139°44'0 0.0
2014-Oct-20 23:32N 35°29' E 139°44'0 0.0
2014-Oct-20 22:32N 35°29' E 139°44'0 0.0
2014-Oct-20 21:32N 35°29' E 139°44'5 4.7
2014-Oct-20 20:33N 35°25' E 139°46'1010.1
2014-Oct-20 19:33N 35°15' E 139°47'  
2014-Oct-17 23:31N 35°08' E 139°43'1112.0
2014-Oct-17 22:34N 35°19' E 139°43'1010.0
2014-Oct-17 21:34N 35°29' E 139°44'0 0.0
2014-Oct-17 20:33N 35°29' E 139°44'0 0.0
2014-Oct-17 19:33N 35°29' E 139°44'0 0.0
2014-Oct-17 18:33N 35°29' E 139°44'0 0.0
2014-Oct-17 17:33N 35°29' E 139°44'0 0.0
2014-Oct-17 16:33N 35°29' E 139°44'0 0.0
2014-Oct-17 15:33N 35°29' E 139°44'0 0.0
2014-Oct-17 14:30N 35°29' E 139°44'0 0.0
2014-Oct-17 13:33N 35°29' E 139°44'0 0.0
2014-Oct-17 12:33N 35°29' E 139°44'0 0.0
2014-Oct-17 11:33N 35°29' E 139°44'0 0.0
2014-Oct-17 10:33N 35°29' E 139°44'0 0.1
2014-Oct-17 09:33N 35°29' E 139°44'5 4.7
2014-Oct-17 08:34N 35°25' E 139°45'0 0.1
2014-Oct-17 07:29N 35°25' E 139°45'0 0.0
2014-Oct-17 06:29N 35°25' E 139°45'0 0.0
2014-Oct-17 05:29N 35°25' E 139°45'0 0.0
2014-Oct-17 04:32N 35°25' E 139°45'0 0.0
2014-Oct-17 03:17N 35°25' E 139°45'0 0.0
2014-Oct-17 02:32N 35°25' E 139°45'0 0.0
2014-Oct-17 01:32N 35°25' E 139°45'0 0.0
2014-Oct-17 00:32N 35°25' E 139°45'0 0.0
2014-Oct-16 23:29N 35°25' E 139°45'0 0.0
2014-Oct-16 22:29N 35°25' E 139°45'0 0.0
2014-Oct-16 21:32N 35°25' E 139°45'0 0.0
2014-Oct-16 20:32N 35°25' E 139°45'0 0.1
2014-Oct-16 19:32N 35°25' E 139°45'7 6.9
2014-Oct-16 18:33N 35°18' E 139°45'1010.3
2014-Oct-16 17:33N 35°07' E 139°45'  
Track history (hours):
 
Tides and Currents Weather Stations Pressure Air Temp Water Temp Dewpoint Dewpoint Depression Visibility Wind Speed Wind Dir Waves Ship Positions

Nissan Maru

Last reported at 2014-Oct-25 03:15 UTC. Time now 2014-Oct-25 20:38 UTC.
Position N 35°06' E 139°40'.

Length 108 m; draft 7.2 m.

Type: Cargo ship. MMSI: 431400593.

Date/timePositionNaut miles runAvg speedWind from/ knotsBaromVisibWave heightAir tempDewpointWater temp
2014-Oct-25 03:15N 35°06' E 139°40'913.3
2014-Oct-25 02:33N 35°13' E 139°46'1110.8
2014-Oct-25 01:33N 35°24' E 139°45'0 0.5
2014-Oct-25 00:33N 35°24' E 139°45'0 0.0
2014-Oct-24 23:33N 35°24' E 139°45'4 4.2
2014-Oct-24 22:33N 35°29' E 139°45'0 0.5
2014-Oct-24 21:33N 35°29' E 139°44'0 0.0
2014-Oct-24 20:27N 35°29' E 139°44'0 0.0
2014-Oct-24 19:33N 35°29' E 139°44'0 0.0
2014-Oct-24 18:33N 35°29' E 139°44'0 0.0
2014-Oct-24 17:33N 35°29' E 139°44'0 0.0
2014-Oct-24 16:33N 35°29' E 139°44'0 0.0
2014-Oct-24 15:30N 35°29' E 139°44'0 0.0
2014-Oct-24 14:33N 35°29' E 139°44'0 0.0
2014-Oct-24 13:33N 35°29' E 139°44'0 0.0
2014-Oct-24 12:33N 35°29' E 139°44'8 8.3
2014-Oct-24 11:34N 35°21' E 139°45'  
2014-Oct-21 13:25N 35°04' E 139°37'1011.5
2014-Oct-21 12:33N 35°11' E 139°45'1111.3
2014-Oct-21 11:34N 35°22' E 139°42'7 6.9
2014-Oct-21 10:34N 35°29' E 139°44'0 0.0
2014-Oct-21 09:32N 35°29' E 139°44'0 0.0
2014-Oct-21 08:32N 35°29' E 139°44'0 0.0
2014-Oct-21 07:32N 35°29' E 139°44'0 0.0
2014-Oct-21 06:32N 35°29' E 139°44'0 0.0
2014-Oct-21 05:32N 35°29' E 139°44'0 0.0
2014-Oct-21 04:32N 35°29' E 139°44'0 0.0
2014-Oct-21 03:32N 35°29' E 139°44'0 0.0
2014-Oct-21 02:29N 35°29' E 139°44'0 0.0
2014-Oct-21 01:32N 35°29' E 139°44'0 0.0
2014-Oct-21 00:32N 35°29' E 139°44'0 0.0
2014-Oct-20 23:32N 35°29' E 139°44'0 0.0
2014-Oct-20 22:32N 35°29' E 139°44'0 0.0
2014-Oct-20 21:32N 35°29' E 139°44'5 4.7
2014-Oct-20 20:33N 35°25' E 139°46'1010.1
2014-Oct-20 19:33N 35°15' E 139°47'  
2014-Oct-17 23:31N 35°08' E 139°43'1112.0
2014-Oct-17 22:34N 35°19' E 139°43'1010.0
2014-Oct-17 21:34N 35°29' E 139°44'0 0.0
2014-Oct-17 20:33N 35°29' E 139°44'0 0.0
2014-Oct-17 19:33N 35°29' E 139°44'0 0.0
2014-Oct-17 18:33N 35°29' E 139°44'0 0.0
2014-Oct-17 17:33N 35°29' E 139°44'0 0.0
2014-Oct-17 16:33N 35°29' E 139°44'0 0.0
2014-Oct-17 15:33N 35°29' E 139°44'0 0.0
2014-Oct-17 14:30N 35°29' E 139°44'0 0.0
2014-Oct-17 13:33N 35°29' E 139°44'0 0.0
2014-Oct-17 12:33N 35°29' E 139°44'0 0.0
2014-Oct-17 11:33N 35°29' E 139°44'0 0.0
2014-Oct-17 10:33N 35°29' E 139°44'0 0.1
2014-Oct-17 09:33N 35°29' E 139°44'5 4.7
2014-Oct-17 08:34N 35°25' E 139°45'0 0.1
2014-Oct-17 07:29N 35°25' E 139°45'0 0.0
2014-Oct-17 06:29N 35°25' E 139°45'0 0.0
2014-Oct-17 05:29N 35°25' E 139°45'0 0.0
2014-Oct-17 04:32N 35°25' E 139°45'0 0.0
2014-Oct-17 03:17N 35°25' E 139°45'0 0.0
2014-Oct-17 02:32N 35°25' E 139°45'0 0.0
2014-Oct-17 01:32N 35°25' E 139°45'0 0.0
2014-Oct-17 00:32N 35°25' E 139°45'0 0.0
2014-Oct-16 23:29N 35°25' E 139°45'0 0.0
2014-Oct-16 22:29N 35°25' E 139°45'0 0.0
2014-Oct-16 21:32N 35°25' E 139°45'0 0.0
2014-Oct-16 20:32N 35°25' E 139°45'0 0.1
2014-Oct-16 19:32N 35°25' E 139°45'7 6.9
2014-Oct-16 18:33N 35°18' E 139°45'1010.3
2014-Oct-16 17:33N 35°07' E 139°45'  

Dump ship's entire track history